sensor_id;sensor_type;location;lat;lon;timestamp;P1;durP1;ratioP1;P2;durP2;ratioP2
76863;SDS011;65834;52.364;9.754;2023-10-19T00:00:01;19.17;;;10.47;;
76863;SDS011;65834;52.364;9.754;2023-10-19T00:02:46;19.00;;;11.40;;
76863;SDS011;65834;52.364;9.754;2023-10-19T00:05:17;20.47;;;11.23;;
76863;SDS011;65834;52.364;9.754;2023-10-19T00:07:47;20.13;;;12.07;;
76863;SDS011;65834;52.364;9.754;2023-10-19T00:10:14;20.63;;;11.07;;
76863;SDS011;65834;52.364;9.754;2023-10-19T00:12:45;19.83;;;10.93;;
76863;SDS011;65834;52.364;9.754;2023-10-19T00:15:21;18.97;;;11.07;;
76863;SDS011;65834;52.364;9.754;2023-10-19T00:17:52;21.50;;;12.90;;
76863;SDS011;65834;52.364;9.754;2023-10-19T00:20:20;18.23;;;9.83;;
76863;SDS011;65834;52.364;9.754;2023-10-19T00:23:05;21.13;;;12.17;;
76863;SDS011;65834;52.364;9.754;2023-10-19T00:25:36;20.00;;;11.80;;
76863;SDS011;65834;52.364;9.754;2023-10-19T00:28:08;20.70;;;12.73;;
76863;SDS011;65834;52.364;9.754;2023-10-19T00:30:37;20.13;;;12.20;;
76863;SDS011;65834;52.364;9.754;2023-10-19T00:33:09;22.63;;;12.23;;
76863;SDS011;65834;52.364;9.754;2023-10-19T00:35:43;20.93;;;12.43;;
76863;SDS011;65834;52.364;9.754;2023-10-19T00:38:17;20.77;;;13.40;;
76863;SDS011;65834;52.364;9.754;2023-10-19T00:40:54;21.97;;;12.90;;
76863;SDS011;65834;52.364;9.754;2023-10-19T00:43:30;24.47;;;13.60;;
76863;SDS011;65834;52.364;9.754;2023-10-19T00:46:05;23.67;;;12.73;;
76863;SDS011;65834;52.364;9.754;2023-10-19T00:48:37;23.50;;;13.53;;
76863;SDS011;65834;52.364;9.754;2023-10-19T00:51:07;22.93;;;12.63;;
76863;SDS011;65834;52.364;9.754;2023-10-19T00:53:53;24.33;;;14.33;;
76863;SDS011;65834;52.364;9.754;2023-10-19T00:56:25;21.80;;;12.68;;
76863;SDS011;65834;52.364;9.754;2023-10-19T00:58:59;24.07;;;13.70;;
76863;SDS011;65834;52.364;9.754;2023-10-19T01:01:41;22.90;;;13.50;;
76863;SDS011;65834;52.364;9.754;2023-10-19T01:04:14;24.40;;;13.63;;
76863;SDS011;65834;52.364;9.754;2023-10-19T01:06:49;23.50;;;13.57;;
76863;SDS011;65834;52.364;9.754;2023-10-19T01:09:32;22.50;;;12.95;;
76863;SDS011;65834;52.364;9.754;2023-10-19T01:12:05;22.33;;;12.67;;
76863;SDS011;65834;52.364;9.754;2023-10-19T01:15:01;24.27;;;14.60;;
76863;SDS011;65834;52.364;9.754;2023-10-19T01:17:36;26.92;;;15.65;;
76863;SDS011;65834;52.364;9.754;2023-10-19T01:20:11;23.37;;;13.43;;
76863;SDS011;65834;52.364;9.754;2023-10-19T01:22:55;23.47;;;14.20;;
76863;SDS011;65834;52.364;9.754;2023-10-19T01:25:43;24.53;;;13.80;;
76863;SDS011;65834;52.364;9.754;2023-10-19T01:28:17;21.97;;;13.13;;
76863;SDS011;65834;52.364;9.754;2023-10-19T01:30:51;22.37;;;13.40;;
76863;SDS011;65834;52.364;9.754;2023-10-19T01:33:21;23.33;;;14.63;;
76863;SDS011;65834;52.364;9.754;2023-10-19T01:35:50;21.60;;;12.97;;
76863;SDS011;65834;52.364;9.754;2023-10-19T01:38:35;22.08;;;12.70;;
76863;SDS011;65834;52.364;9.754;2023-10-19T01:41:05;25.60;;;15.27;;
76863;SDS011;65834;52.364;9.754;2023-10-19T01:43:40;22.63;;;14.83;;
76863;SDS011;65834;52.364;9.754;2023-10-19T01:46:09;24.50;;;14.30;;
76863;SDS011;65834;52.364;9.754;2023-10-19T01:48:49;25.03;;;15.13;;
76863;SDS011;65834;52.364;9.754;2023-10-19T01:51:20;26.88;;;16.08;;
76863;SDS011;65834;52.364;9.754;2023-10-19T01:53:56;26.20;;;14.83;;
76863;SDS011;65834;52.364;9.754;2023-10-19T01:56:23;24.47;;;14.50;;
76863;SDS011;65834;52.364;9.754;2023-10-19T01:58:53;24.43;;;14.17;;
76863;SDS011;65834;52.364;9.754;2023-10-19T02:01:21;23.70;;;14.07;;
76863;SDS011;65834;52.364;9.754;2023-10-19T02:03:58;24.30;;;15.40;;
76863;SDS011;65834;52.364;9.754;2023-10-19T02:06:27;24.67;;;15.07;;
76863;SDS011;65834;52.364;9.754;2023-10-19T02:09:05;23.70;;;13.73;;
76863;SDS011;65834;52.364;9.754;2023-10-19T02:11:44;22.70;;;14.23;;
76863;SDS011;65834;52.364;9.754;2023-10-19T02:14:16;25.53;;;14.97;;
76863;SDS011;65834;52.364;9.754;2023-10-19T02:16:46;24.87;;;14.60;;
76863;SDS011;65834;52.364;9.754;2023-10-19T02:19:21;23.90;;;13.70;;
76863;SDS011;65834;52.364;9.754;2023-10-19T02:21:50;26.07;;;15.13;;
76863;SDS011;65834;52.364;9.754;2023-10-19T02:24:23;25.47;;;14.13;;
76863;SDS011;65834;52.364;9.754;2023-10-19T02:26:51;24.83;;;14.17;;
76863;SDS011;65834;52.364;9.754;2023-10-19T02:29:22;24.60;;;13.90;;
76863;SDS011;65834;52.364;9.754;2023-10-19T02:31:50;24.47;;;15.00;;
76863;SDS011;65834;52.364;9.754;2023-10-19T02:34:21;24.97;;;13.63;;
76863;SDS011;65834;52.364;9.754;2023-10-19T02:36:49;22.70;;;13.30;;
76863;SDS011;65834;52.364;9.754;2023-10-19T02:39:20;23.50;;;13.57;;
76863;SDS011;65834;52.364;9.754;2023-10-19T02:41:55;23.57;;;13.80;;
76863;SDS011;65834;52.364;9.754;2023-10-19T02:46:57;25.50;;;14.83;;
76863;SDS011;65834;52.364;9.754;2023-10-19T02:49:35;27.60;;;14.00;;
76863;SDS011;65834;52.364;9.754;2023-10-19T02:52:06;26.00;;;14.00;;
76863;SDS011;65834;52.364;9.754;2023-10-19T02:54:42;23.17;;;14.77;;
76863;SDS011;65834;52.364;9.754;2023-10-19T02:57:09;27.27;;;15.40;;
76863;SDS011;65834;52.364;9.754;2023-10-19T02:59:40;23.50;;;13.83;;
76863;SDS011;65834;52.364;9.754;2023-10-19T03:02:08;25.03;;;13.63;;
76863;SDS011;65834;52.364;9.754;2023-10-19T03:04:44;22.87;;;13.37;;
76863;SDS011;65834;52.364;9.754;2023-10-19T03:07:13;22.37;;;13.00;;
76863;SDS011;65834;52.364;9.754;2023-10-19T03:09:45;22.00;;;12.40;;
76863;SDS011;65834;52.364;9.754;2023-10-19T03:12:16;23.87;;;13.70;;
76863;SDS011;65834;52.364;9.754;2023-10-19T03:14:46;22.33;;;12.40;;
76863;SDS011;65834;52.364;9.754;2023-10-19T03:17:14;20.30;;;11.33;;
76863;SDS011;65834;52.364;9.754;2023-10-19T03:19:44;25.70;;;13.07;;
76863;SDS011;65834;52.364;9.754;2023-10-19T03:22:12;25.97;;;14.30;;
76863;SDS011;65834;52.364;9.754;2023-10-19T03:24:46;23.70;;;14.10;;
76863;SDS011;65834;52.364;9.754;2023-10-19T03:27:13;25.47;;;13.27;;
76863;SDS011;65834;52.364;9.754;2023-10-19T03:29:45;22.50;;;13.00;;
76863;SDS011;65834;52.364;9.754;2023-10-19T03:32:20;23.43;;;12.73;;
76863;SDS011;65834;52.364;9.754;2023-10-19T03:34:53;25.83;;;13.97;;
76863;SDS011;65834;52.364;9.754;2023-10-19T03:37:23;24.90;;;14.07;;
76863;SDS011;65834;52.364;9.754;2023-10-19T03:39:59;21.30;;;12.70;;
76863;SDS011;65834;52.364;9.754;2023-10-19T03:42:32;22.90;;;12.87;;
76863;SDS011;65834;52.364;9.754;2023-10-19T03:45:07;22.90;;;12.87;;
76863;SDS011;65834;52.364;9.754;2023-10-19T03:47:39;20.58;;;12.18;;
76863;SDS011;65834;52.364;9.754;2023-10-19T03:50:10;22.73;;;13.13;;
76863;SDS011;65834;52.364;9.754;2023-10-19T03:52:47;24.20;;;14.23;;
76863;SDS011;65834;52.364;9.754;2023-10-19T03:55:21;22.03;;;13.17;;
76863;SDS011;65834;52.364;9.754;2023-10-19T03:57:50;25.95;;;15.40;;
76863;SDS011;65834;52.364;9.754;2023-10-19T04:00:22;25.37;;;14.17;;
76863;SDS011;65834;52.364;9.754;2023-10-19T04:02:55;23.27;;;13.90;;
76863;SDS011;65834;52.364;9.754;2023-10-19T04:05:28;25.53;;;15.17;;
76863;SDS011;65834;52.364;9.754;2023-10-19T04:08:00;24.85;;;13.52;;
76863;SDS011;65834;52.364;9.754;2023-10-19T04:10:42;20.33;;;12.17;;
76863;SDS011;65834;52.364;9.754;2023-10-19T04:13:33;24.37;;;13.63;;
76863;SDS011;65834;52.364;9.754;2023-10-19T04:16:03;21.23;;;13.03;;
76863;SDS011;65834;52.364;9.754;2023-10-19T04:18:35;22.15;;;12.75;;
76863;SDS011;65834;52.364;9.754;2023-10-19T04:21:09;23.47;;;14.43;;
76863;SDS011;65834;52.364;9.754;2023-10-19T04:23:39;24.60;;;14.27;;
76863;SDS011;65834;52.364;9.754;2023-10-19T04:26:12;22.50;;;12.97;;
76863;SDS011;65834;52.364;9.754;2023-10-19T04:28:45;22.27;;;13.93;;
76863;SDS011;65834;52.364;9.754;2023-10-19T04:31:16;21.53;;;13.10;;
76863;SDS011;65834;52.364;9.754;2023-10-19T04:33:50;22.37;;;12.70;;
76863;SDS011;65834;52.364;9.754;2023-10-19T04:36:21;18.97;;;11.90;;
76863;SDS011;65834;52.364;9.754;2023-10-19T04:38:52;20.93;;;11.77;;
76863;SDS011;65834;52.364;9.754;2023-10-19T04:41:25;21.43;;;11.77;;
76863;SDS011;65834;52.364;9.754;2023-10-19T04:43:56;21.77;;;13.10;;
76863;SDS011;65834;52.364;9.754;2023-10-19T04:46:27;20.20;;;12.03;;
76863;SDS011;65834;52.364;9.754;2023-10-19T04:48:57;20.90;;;11.60;;
76863;SDS011;65834;52.364;9.754;2023-10-19T04:51:27;20.60;;;12.03;;
76863;SDS011;65834;52.364;9.754;2023-10-19T04:53:57;20.50;;;12.80;;
76863;SDS011;65834;52.364;9.754;2023-10-19T04:56:29;18.77;;;11.40;;
76863;SDS011;65834;52.364;9.754;2023-10-19T04:58:59;19.23;;;11.10;;
76863;SDS011;65834;52.364;9.754;2023-10-19T05:01:28;16.67;;;10.10;;
76863;SDS011;65834;52.364;9.754;2023-10-19T05:04:00;20.83;;;11.33;;
76863;SDS011;65834;52.364;9.754;2023-10-19T05:06:30;18.67;;;10.47;;
76863;SDS011;65834;52.364;9.754;2023-10-19T05:08:59;18.40;;;9.80;;
76863;SDS011;65834;52.364;9.754;2023-10-19T05:11:32;17.70;;;9.60;;
76863;SDS011;65834;52.364;9.754;2023-10-19T05:14:02;18.48;;;10.43;;
76863;SDS011;65834;52.364;9.754;2023-10-19T05:16:31;20.07;;;10.87;;
76863;SDS011;65834;52.364;9.754;2023-10-19T05:19:01;18.30;;;10.83;;
76863;SDS011;65834;52.364;9.754;2023-10-19T05:21:31;20.90;;;11.20;;
76863;SDS011;65834;52.364;9.754;2023-10-19T05:24:01;17.50;;;9.50;;
76863;SDS011;65834;52.364;9.754;2023-10-19T05:26:35;18.67;;;10.00;;
76863;SDS011;65834;52.364;9.754;2023-10-19T05:29:05;17.63;;;9.87;;
76863;SDS011;65834;52.364;9.754;2023-10-19T05:31:35;19.77;;;10.30;;
76863;SDS011;65834;52.364;9.754;2023-10-19T05:34:05;17.33;;;10.03;;
76863;SDS011;65834;52.364;9.754;2023-10-19T05:36:34;18.33;;;9.37;;
76863;SDS011;65834;52.364;9.754;2023-10-19T05:39:05;17.83;;;9.70;;
76863;SDS011;65834;52.364;9.754;2023-10-19T05:41:39;17.13;;;9.07;;
76863;SDS011;65834;52.364;9.754;2023-10-19T05:44:09;17.52;;;9.60;;
76863;SDS011;65834;52.364;9.754;2023-10-19T05:46:38;16.27;;;8.37;;
76863;SDS011;65834;52.364;9.754;2023-10-19T05:49:09;16.30;;;9.23;;
76863;SDS011;65834;52.364;9.754;2023-10-19T05:51:38;15.40;;;8.57;;
76863;SDS011;65834;52.364;9.754;2023-10-19T05:54:10;17.38;;;8.68;;
76863;SDS011;65834;52.364;9.754;2023-10-19T05:56:43;16.10;;;8.23;;
76863;SDS011;65834;52.364;9.754;2023-10-19T05:59:12;16.35;;;8.70;;
76863;SDS011;65834;52.364;9.754;2023-10-19T06:01:42;15.83;;;7.70;;
76863;SDS011;65834;52.364;9.754;2023-10-19T06:04:13;15.73;;;8.03;;
76863;SDS011;65834;52.364;9.754;2023-10-19T06:06:47;16.43;;;8.60;;
76863;SDS011;65834;52.364;9.754;2023-10-19T06:09:18;15.77;;;8.40;;
76863;SDS011;65834;52.364;9.754;2023-10-19T06:11:58;16.43;;;8.13;;
76863;SDS011;65834;52.364;9.754;2023-10-19T06:14:28;14.15;;;7.47;;
76863;SDS011;65834;52.364;9.754;2023-10-19T06:16:58;14.70;;;7.77;;
76863;SDS011;65834;52.364;9.754;2023-10-19T06:19:28;15.70;;;7.40;;
76863;SDS011;65834;52.364;9.754;2023-10-19T06:21:58;16.37;;;8.47;;
76863;SDS011;65834;52.364;9.754;2023-10-19T06:24:29;15.87;;;7.13;;
76863;SDS011;65834;52.364;9.754;2023-10-19T06:27:01;16.20;;;8.03;;
76863;SDS011;65834;52.364;9.754;2023-10-19T06:29:35;15.67;;;7.67;;
76863;SDS011;65834;52.364;9.754;2023-10-19T06:32:05;15.97;;;8.50;;
76863;SDS011;65834;52.364;9.754;2023-10-19T06:34:35;13.77;;;7.53;;
76863;SDS011;65834;52.364;9.754;2023-10-19T06:37:05;15.93;;;7.53;;
76863;SDS011;65834;52.364;9.754;2023-10-19T06:39:37;16.23;;;7.50;;
76863;SDS011;65834;52.364;9.754;2023-10-19T06:42:10;13.83;;;6.87;;
76863;SDS011;65834;52.364;9.754;2023-10-19T06:44:40;13.68;;;6.43;;
76863;SDS011;65834;52.364;9.754;2023-10-19T06:47:12;14.73;;;7.37;;
76863;SDS011;65834;52.364;9.754;2023-10-19T06:49:42;15.67;;;7.97;;
76863;SDS011;65834;52.364;9.754;2023-10-19T06:52:12;14.73;;;6.90;;
76863;SDS011;65834;52.364;9.754;2023-10-19T06:54:42;14.90;;;6.43;;
76863;SDS011;65834;52.364;9.754;2023-10-19T06:57:14;13.67;;;6.97;;
76863;SDS011;65834;52.364;9.754;2023-10-19T06:59:44;14.98;;;7.15;;
76863;SDS011;65834;52.364;9.754;2023-10-19T07:02:14;12.53;;;5.87;;
76863;SDS011;65834;52.364;9.754;2023-10-19T07:04:44;15.07;;;7.13;;
76863;SDS011;65834;52.364;9.754;2023-10-19T07:07:14;13.80;;;6.77;;
76863;SDS011;65834;52.364;9.754;2023-10-19T07:09:44;14.33;;;6.77;;
76863;SDS011;65834;52.364;9.754;2023-10-19T07:12:16;15.43;;;7.43;;
76863;SDS011;65834;52.364;9.754;2023-10-19T07:14:46;14.10;;;6.68;;
76863;SDS011;65834;52.364;9.754;2023-10-19T07:17:16;15.27;;;7.07;;
76863;SDS011;65834;52.364;9.754;2023-10-19T07:19:45;13.67;;;6.60;;
76863;SDS011;65834;52.364;9.754;2023-10-19T07:22:15;13.07;;;6.10;;
76863;SDS011;65834;52.364;9.754;2023-10-19T07:24:49;13.10;;;5.53;;
76863;SDS011;65834;52.364;9.754;2023-10-19T07:27:21;11.40;;;5.20;;
76863;SDS011;65834;52.364;9.754;2023-10-19T07:30:04;12.60;;;5.90;;
76863;SDS011;65834;52.364;9.754;2023-10-19T07:32:35;12.25;;;5.32;;
76863;SDS011;65834;52.364;9.754;2023-10-19T07:35:06;11.33;;;5.67;;
76863;SDS011;65834;52.364;9.754;2023-10-19T07:37:36;13.10;;;5.77;;
76863;SDS011;65834;52.364;9.754;2023-10-19T07:40:07;11.63;;;5.43;;
76863;SDS011;65834;52.364;9.754;2023-10-19T07:42:43;13.40;;;6.17;;
76863;SDS011;65834;52.364;9.754;2023-10-19T07:45:13;11.75;;;5.18;;
76863;SDS011;65834;52.364;9.754;2023-10-19T07:47:43;14.13;;;5.90;;
76863;SDS011;65834;52.364;9.754;2023-10-19T07:50:13;11.40;;;5.03;;
76863;SDS011;65834;52.364;9.754;2023-10-19T07:52:45;12.95;;;5.40;;
76863;SDS011;65834;52.364;9.754;2023-10-19T07:55:16;12.53;;;6.03;;
76863;SDS011;65834;52.364;9.754;2023-10-19T07:57:50;12.40;;;5.43;;
76863;SDS011;65834;52.364;9.754;2023-10-19T08:00:20;13.47;;;5.63;;
76863;SDS011;65834;52.364;9.754;2023-10-19T08:02:51;11.00;;;4.77;;
76863;SDS011;65834;52.364;9.754;2023-10-19T08:05:22;11.27;;;5.17;;
76863;SDS011;65834;52.364;9.754;2023-10-19T08:07:52;10.93;;;4.40;;
76863;SDS011;65834;52.364;9.754;2023-10-19T08:10:23;13.07;;;4.93;;
76863;SDS011;65834;52.364;9.754;2023-10-19T08:12:56;10.67;;;4.50;;
76863;SDS011;65834;52.364;9.754;2023-10-19T08:15:26;11.05;;;4.70;;
76863;SDS011;65834;52.364;9.754;2023-10-19T08:17:57;12.37;;;5.63;;
76863;SDS011;65834;52.364;9.754;2023-10-19T08:20:27;12.10;;;5.50;;
76863;SDS011;65834;52.364;9.754;2023-10-19T08:23:03;11.73;;;5.13;;
76863;SDS011;65834;52.364;9.754;2023-10-19T08:25:33;11.97;;;4.80;;
76863;SDS011;65834;52.364;9.754;2023-10-19T08:28:24;11.60;;;4.97;;
76863;SDS011;65834;52.364;9.754;2023-10-19T08:30:54;13.10;;;4.75;;
76863;SDS011;65834;52.364;9.754;2023-10-19T08:33:28;11.00;;;4.70;;
76863;SDS011;65834;52.364;9.754;2023-10-19T08:36:05;9.20;;;3.97;;
76863;SDS011;65834;52.364;9.754;2023-10-19T08:38:35;10.93;;;5.23;;
76863;SDS011;65834;52.364;9.754;2023-10-19T08:41:04;10.53;;;4.10;;
76863;SDS011;65834;52.364;9.754;2023-10-19T08:43:38;12.20;;;4.97;;
76863;SDS011;65834;52.364;9.754;2023-10-19T08:46:08;10.27;;;4.63;;
76863;SDS011;65834;52.364;9.754;2023-10-19T08:48:39;12.27;;;5.20;;
76863;SDS011;65834;52.364;9.754;2023-10-19T08:51:09;10.07;;;4.47;;
76863;SDS011;65834;52.364;9.754;2023-10-19T08:53:39;11.47;;;5.37;;
76863;SDS011;65834;52.364;9.754;2023-10-19T08:56:11;12.80;;;5.57;;
76863;SDS011;65834;52.364;9.754;2023-10-19T08:58:45;13.07;;;5.68;;
76863;SDS011;65834;52.364;9.754;2023-10-19T09:01:17;12.40;;;5.68;;
76863;SDS011;65834;52.364;9.754;2023-10-19T09:03:50;13.57;;;5.47;;
76863;SDS011;65834;52.364;9.754;2023-10-19T09:06:20;12.10;;;5.40;;
76863;SDS011;65834;52.364;9.754;2023-10-19T09:08:50;10.17;;;4.53;;
76863;SDS011;65834;52.364;9.754;2023-10-19T09:11:20;12.93;;;5.97;;
76863;SDS011;65834;52.364;9.754;2023-10-19T09:13:53;12.53;;;5.80;;
76863;SDS011;65834;52.364;9.754;2023-10-19T09:16:24;13.00;;;6.07;;
76863;SDS011;65834;52.364;9.754;2023-10-19T09:18:53;13.33;;;5.80;;
76863;SDS011;65834;52.364;9.754;2023-10-19T09:21:23;12.67;;;5.57;;
76863;SDS011;65834;52.364;9.754;2023-10-19T09:23:56;12.35;;;5.95;;
76863;SDS011;65834;52.364;9.754;2023-10-19T09:26:26;12.17;;;5.47;;
76863;SDS011;65834;52.364;9.754;2023-10-19T09:28:58;12.60;;;5.97;;
76863;SDS011;65834;52.364;9.754;2023-10-19T09:33:58;13.30;;;5.97;;
76863;SDS011;65834;52.364;9.754;2023-10-19T09:36:30;13.67;;;5.60;;
76863;SDS011;65834;52.364;9.754;2023-10-19T09:39:01;15.43;;;7.30;;
76863;SDS011;65834;52.364;9.754;2023-10-19T09:41:30;13.30;;;5.83;;
76863;SDS011;65834;52.364;9.754;2023-10-19T09:44:05;14.13;;;7.67;;
76863;SDS011;65834;52.364;9.754;2023-10-19T09:46:39;14.13;;;6.40;;
76863;SDS011;65834;52.364;9.754;2023-10-19T09:49:10;13.90;;;5.80;;
76863;SDS011;65834;52.364;9.754;2023-10-19T09:51:41;13.00;;;5.93;;
76863;SDS011;65834;52.364;9.754;2023-10-19T09:54:37;12.83;;;6.30;;
76863;SDS011;65834;52.364;9.754;2023-10-19T09:57:16;14.23;;;6.23;;
76863;SDS011;65834;52.364;9.754;2023-10-19T09:59:54;14.00;;;6.70;;
76863;SDS011;65834;52.364;9.754;2023-10-19T10:02:38;12.90;;;5.97;;
76863;SDS011;65834;52.364;9.754;2023-10-19T10:11:00;13.93;;;6.17;;
76863;SDS011;65834;52.364;9.754;2023-10-19T10:13:43;13.53;;;6.60;;
76863;SDS011;65834;52.364;9.754;2023-10-19T10:16:21;12.60;;;6.07;;
76863;SDS011;65834;52.364;9.754;2023-10-19T10:18:57;15.13;;;6.80;;
76863;SDS011;65834;52.364;9.754;2023-10-19T10:21:28;15.40;;;7.80;;
76863;SDS011;65834;52.364;9.754;2023-10-19T10:24:00;14.87;;;7.20;;
76863;SDS011;65834;52.364;9.754;2023-10-19T10:29:29;14.40;;;7.00;;
76863;SDS011;65834;52.364;9.754;2023-10-19T10:32:02;13.53;;;6.80;;
76863;SDS011;65834;52.364;9.754;2023-10-19T10:34:43;16.97;;;7.00;;
76863;SDS011;65834;52.364;9.754;2023-10-19T10:37:15;19.23;;;8.13;;
76863;SDS011;65834;52.364;9.754;2023-10-19T10:39:47;14.60;;;6.07;;
76863;SDS011;65834;52.364;9.754;2023-10-19T10:42:16;17.07;;;7.33;;
76863;SDS011;65834;52.364;9.754;2023-10-19T10:44:46;17.30;;;7.63;;
76863;SDS011;65834;52.364;9.754;2023-10-19T10:47:21;14.43;;;7.18;;
76863;SDS011;65834;52.364;9.754;2023-10-19T10:49:52;22.37;;;7.97;;
76863;SDS011;65834;52.364;9.754;2023-10-19T10:52:24;16.70;;;7.70;;
76863;SDS011;65834;52.364;9.754;2023-10-19T10:54:56;14.07;;;6.53;;
76863;SDS011;65834;52.364;9.754;2023-10-19T10:57:32;13.73;;;5.93;;
76863;SDS011;65834;52.364;9.754;2023-10-19T11:00:03;13.30;;;6.37;;
76863;SDS011;65834;52.364;9.754;2023-10-19T11:02:37;13.63;;;6.47;;
76863;SDS011;65834;52.364;9.754;2023-10-19T11:05:10;14.40;;;6.63;;
76863;SDS011;65834;52.364;9.754;2023-10-19T11:07:41;14.13;;;6.55;;
76863;SDS011;65834;52.364;9.754;2023-10-19T11:10:45;13.83;;;6.60;;
76863;SDS011;65834;52.364;9.754;2023-10-19T11:13:17;13.17;;;6.80;;
76863;SDS011;65834;52.364;9.754;2023-10-19T11:15:48;14.17;;;6.73;;
76863;SDS011;65834;52.364;9.754;2023-10-19T11:18:30;14.53;;;5.57;;
76863;SDS011;65834;52.364;9.754;2023-10-19T11:21:02;13.00;;;6.10;;
76863;SDS011;65834;52.364;9.754;2023-10-19T11:23:37;14.10;;;6.83;;
76863;SDS011;65834;52.364;9.754;2023-10-19T11:26:12;14.80;;;7.23;;
76863;SDS011;65834;52.364;9.754;2023-10-19T11:28:43;14.60;;;6.83;;
76863;SDS011;65834;52.364;9.754;2023-10-19T11:31:18;13.77;;;6.70;;
76863;SDS011;65834;52.364;9.754;2023-10-19T11:33:53;13.90;;;6.93;;
76863;SDS011;65834;52.364;9.754;2023-10-19T11:36:23;14.77;;;7.60;;
76863;SDS011;65834;52.364;9.754;2023-10-19T11:38:54;13.07;;;5.47;;
76863;SDS011;65834;52.364;9.754;2023-10-19T11:41:24;14.17;;;5.93;;
76863;SDS011;65834;52.364;9.754;2023-10-19T11:43:54;13.43;;;6.00;;
76863;SDS011;65834;52.364;9.754;2023-10-19T11:46:24;14.17;;;6.10;;
76863;SDS011;65834;52.364;9.754;2023-10-19T11:48:58;12.83;;;5.83;;
76863;SDS011;65834;52.364;9.754;2023-10-19T11:51:30;13.53;;;6.50;;
76863;SDS011;65834;52.364;9.754;2023-10-19T11:54:00;13.67;;;6.47;;
76863;SDS011;65834;52.364;9.754;2023-10-19T11:56:29;13.80;;;6.57;;
76863;SDS011;65834;52.364;9.754;2023-10-19T11:58:59;12.40;;;6.10;;
76863;SDS011;65834;52.364;9.754;2023-10-19T12:01:29;12.20;;;6.23;;
76863;SDS011;65834;52.364;9.754;2023-10-19T12:04:01;12.43;;;6.20;;
76863;SDS011;65834;52.364;9.754;2023-10-19T12:06:32;14.80;;;6.97;;
76863;SDS011;65834;52.364;9.754;2023-10-19T12:09:01;14.40;;;6.60;;
76863;SDS011;65834;52.364;9.754;2023-10-19T12:11:41;14.00;;;6.70;;
76863;SDS011;65834;52.364;9.754;2023-10-19T12:14:14;14.18;;;7.28;;
76863;SDS011;65834;52.364;9.754;2023-10-19T12:16:44;13.83;;;6.70;;
76863;SDS011;65834;52.364;9.754;2023-10-19T12:19:17;15.03;;;7.57;;
76863;SDS011;65834;52.364;9.754;2023-10-19T12:21:46;13.90;;;6.55;;
76863;SDS011;65834;52.364;9.754;2023-10-19T12:24:17;15.00;;;6.97;;
76863;SDS011;65834;52.364;9.754;2023-10-19T12:26:47;13.63;;;6.30;;
76863;SDS011;65834;52.364;9.754;2023-10-19T12:35:52;13.97;;;6.33;;
76863;SDS011;65834;52.364;9.754;2023-10-19T12:38:24;16.30;;;7.33;;
76863;SDS011;65834;52.364;9.754;2023-10-19T12:40:54;14.63;;;6.87;;
76863;SDS011;65834;52.364;9.754;2023-10-19T12:43:24;15.33;;;6.97;;
76863;SDS011;65834;52.364;9.754;2023-10-19T12:45:56;14.57;;;7.40;;
76863;SDS011;65834;52.364;9.754;2023-10-19T12:48:28;14.32;;;6.88;;
76863;SDS011;65834;52.364;9.754;2023-10-19T12:51:03;12.63;;;6.60;;
76863;SDS011;65834;52.364;9.754;2023-10-19T12:53:33;16.07;;;7.23;;
76863;SDS011;65834;52.364;9.754;2023-10-19T12:56:05;15.97;;;7.13;;
76863;SDS011;65834;52.364;9.754;2023-10-19T12:58:37;14.60;;;7.67;;
76863;SDS011;65834;52.364;9.754;2023-10-19T13:01:08;15.63;;;7.80;;
76863;SDS011;65834;52.364;9.754;2023-10-19T13:03:43;16.97;;;8.70;;
76863;SDS011;65834;52.364;9.754;2023-10-19T13:06:16;15.90;;;7.50;;
76863;SDS011;65834;52.364;9.754;2023-10-19T13:08:46;16.80;;;9.00;;
76863;SDS011;65834;52.364;9.754;2023-10-19T13:11:16;15.83;;;8.17;;
76863;SDS011;65834;52.364;9.754;2023-10-19T13:13:46;16.70;;;8.80;;
76863;SDS011;65834;52.364;9.754;2023-10-19T13:16:16;17.97;;;9.57;;
76863;SDS011;65834;52.364;9.754;2023-10-19T13:18:45;17.93;;;8.87;;
76863;SDS011;65834;52.364;9.754;2023-10-19T13:21:19;17.23;;;8.73;;
76863;SDS011;65834;52.364;9.754;2023-10-19T13:23:58;17.77;;;9.13;;
76863;SDS011;65834;52.364;9.754;2023-10-19T13:26:28;19.13;;;9.90;;
76863;SDS011;65834;52.364;9.754;2023-10-19T13:28:58;18.90;;;9.90;;
76863;SDS011;65834;52.364;9.754;2023-10-19T13:31:28;19.67;;;10.57;;
76863;SDS011;65834;52.364;9.754;2023-10-19T13:33:59;17.87;;;10.20;;
76863;SDS011;65834;52.364;9.754;2023-10-19T13:36:32;18.47;;;9.67;;
76863;SDS011;65834;52.364;9.754;2023-10-19T13:39:02;19.15;;;10.05;;
76863;SDS011;65834;52.364;9.754;2023-10-19T13:41:33;17.33;;;10.30;;
76863;SDS011;65834;52.364;9.754;2023-10-19T13:44:03;19.33;;;10.83;;
76863;SDS011;65834;52.364;9.754;2023-10-19T13:46:33;19.30;;;9.97;;
76863;SDS011;65834;52.364;9.754;2023-10-19T13:49:03;19.10;;;9.60;;
76863;SDS011;65834;52.364;9.754;2023-10-19T13:54:09;20.98;;;11.43;;
76863;SDS011;65834;52.364;9.754;2023-10-19T13:56:38;19.20;;;9.60;;
76863;SDS011;65834;52.364;9.754;2023-10-19T13:59:08;20.93;;;10.73;;
76863;SDS011;65834;52.364;9.754;2023-10-19T14:01:37;20.33;;;11.07;;
76863;SDS011;65834;52.364;9.754;2023-10-19T14:04:07;19.83;;;11.67;;
76863;SDS011;65834;52.364;9.754;2023-10-19T14:06:39;21.27;;;11.77;;
76863;SDS011;65834;52.364;9.754;2023-10-19T14:09:10;21.53;;;11.33;;
76863;SDS011;65834;52.364;9.754;2023-10-19T14:11:39;18.53;;;9.93;;
76863;SDS011;65834;52.364;9.754;2023-10-19T14:14:09;18.33;;;9.67;;
76863;SDS011;65834;52.364;9.754;2023-10-19T14:16:39;21.47;;;11.80;;
76863;SDS011;65834;52.364;9.754;2023-10-19T14:19:11;18.60;;;9.83;;
76863;SDS011;65834;52.364;9.754;2023-10-19T14:21:44;18.57;;;10.27;;
76863;SDS011;65834;52.364;9.754;2023-10-19T14:24:14;19.73;;;10.77;;
76863;SDS011;65834;52.364;9.754;2023-10-19T14:26:44;21.40;;;12.37;;
76863;SDS011;65834;52.364;9.754;2023-10-19T14:29:14;20.53;;;10.27;;
76863;SDS011;65834;52.364;9.754;2023-10-19T14:31:43;22.63;;;12.23;;
76863;SDS011;65834;52.364;9.754;2023-10-19T14:34:13;24.47;;;12.93;;
76863;SDS011;65834;52.364;9.754;2023-10-19T14:36:46;21.60;;;11.83;;
76863;SDS011;65834;52.364;9.754;2023-10-19T14:39:19;21.73;;;11.40;;
76863;SDS011;65834;52.364;9.754;2023-10-19T14:41:51;23.67;;;14.27;;
76863;SDS011;65834;52.364;9.754;2023-10-19T14:44:20;23.43;;;13.03;;
76863;SDS011;65834;52.364;9.754;2023-10-19T14:46:50;20.93;;;11.43;;
76863;SDS011;65834;52.364;9.754;2023-10-19T14:49:20;23.40;;;11.73;;
76863;SDS011;65834;52.364;9.754;2023-10-19T14:51:52;24.97;;;12.30;;
76863;SDS011;65834;52.364;9.754;2023-10-19T14:54:22;23.88;;;12.95;;
76863;SDS011;65834;52.364;9.754;2023-10-19T14:56:52;22.37;;;11.60;;
76863;SDS011;65834;52.364;9.754;2023-10-19T14:59:21;25.67;;;13.30;;
76863;SDS011;65834;52.364;9.754;2023-10-19T15:01:51;24.90;;;12.80;;
76863;SDS011;65834;52.364;9.754;2023-10-19T15:04:21;23.10;;;12.70;;
76863;SDS011;65834;52.364;9.754;2023-10-19T15:06:57;26.23;;;13.83;;
76863;SDS011;65834;52.364;9.754;2023-10-19T15:09:27;24.85;;;14.98;;
76863;SDS011;65834;52.364;9.754;2023-10-19T15:11:58;26.50;;;14.30;;
76863;SDS011;65834;52.364;9.754;2023-10-19T15:14:29;23.73;;;12.75;;
76863;SDS011;65834;52.364;9.754;2023-10-19T15:16:59;26.77;;;14.37;;
76863;SDS011;65834;52.364;9.754;2023-10-19T15:19:29;24.83;;;13.20;;